createdAt,value
2022-11-18T00:01:08.204Z,96094.56
2022-11-18T00:05:11.615Z,96070.59
2022-11-18T00:09:15.333Z,96069.00
2022-11-18T00:13:37.796Z,96065.13
2022-11-18T00:17:41.046Z,96066.84
2022-11-18T00:21:44.356Z,96057.66
2022-11-18T00:25:47.950Z,96059.84
2022-11-18T00:29:52.571Z,96063.41
2022-11-18T00:33:55.940Z,96075.56
2022-11-18T00:37:59.343Z,96067.63
2022-11-18T00:42:20.302Z,96062.44
2022-11-18T00:46:25.273Z,96039.88
2022-11-18T00:50:28.882Z,96044.06
2022-11-18T00:54:31.912Z,96032.91
2022-11-18T00:58:35.554Z,96032.09
2022-11-18T01:02:40.270Z,96029.69
2022-11-18T01:06:44.361Z,96021.28
2022-11-18T01:10:49.174Z,96019.66
2022-11-18T01:14:52.677Z,96009.66
2022-11-18T01:18:57.422Z,96000.09
2022-11-18T01:23:00.940Z,96001.28
2022-11-18T01:27:04.352Z,96035.97
2022-11-18T01:31:09.535Z,96037.94
2022-11-18T01:35:15.460Z,96019.97
2022-11-18T01:39:18.780Z,96033.94
2022-11-18T01:43:24.003Z,96033.13
2022-11-18T01:47:30.261Z,96043.50
2022-11-18T01:51:38.558Z,96034.72
2022-11-18T01:55:48.606Z,96027.56
2022-11-18T01:59:56.137Z,96017.63
2022-11-18T02:03:59.714Z,96016.47
2022-11-18T02:08:05.413Z,96020.47
2022-11-18T02:12:09.883Z,96067.63
2022-11-18T02:16:21.530Z,96070.81
2022-11-18T02:20:31.497Z,96067.22
2022-11-18T02:24:44.733Z,96068.84
2022-11-18T02:29:03.199Z,96027.34
2022-11-18T02:33:12.739Z,96016.16
2022-11-18T02:37:22.688Z,96021.34
2022-11-18T02:41:29.723Z,96025.34
2022-11-18T02:45:35.243Z,96005.41
2022-11-18T02:49:43.592Z,96008.00
2022-11-18T02:53:49.323Z,96014.97
2022-11-18T02:57:54.688Z,96017.16
2022-11-18T03:02:00.165Z,96003.75
2022-11-18T03:06:15.578Z,96000.91
2022-11-18T03:10:21.107Z,96002.88
2022-11-18T03:14:30.263Z,96016.38
2022-11-18T03:18:43.786Z,96034.72
2022-11-18T03:22:54.174Z,96042.69
2022-11-18T03:27:08.013Z,96069.91
2022-11-18T03:31:16.399Z,96074.47
2022-11-18T03:35:25.151Z,96040.94
2022-11-18T03:39:31.254Z,96050.31
2022-11-18T03:43:40.051Z,96058.28
2022-11-18T03:47:47.541Z,96062.47
2022-11-18T03:51:57.704Z,96043.16
2022-11-18T03:56:12.757Z,96038.63
2022-11-18T04:00:20.496Z,96024.28
2022-11-18T04:04:26.593Z,96002.38
2022-11-18T04:08:36.829Z,95999.59
2022-11-18T04:12:44.667Z,96002.00
2022-11-18T04:16:52.241Z,95995.63
2022-11-18T04:20:55.855Z,95987.69
2022-11-18T04:25:00.602Z,95980.53
2022-11-18T04:29:04.009Z,95980.53
2022-11-18T04:33:07.142Z,95975.34
2022-11-18T04:37:10.584Z,95969.97
2022-11-18T04:41:15.322Z,95967.19
2022-11-18T04:45:18.552Z,95979.78
2022-11-18T04:49:21.988Z,95974.25
2022-11-18T04:53:25.462Z,95980.84
2022-11-18T04:57:29.904Z,95983.06
2022-11-18T05:01:34.278Z,95982.25
2022-11-18T05:05:37.810Z,95985.84
2022-11-18T05:09:41.345Z,95985.22
2022-11-18T05:13:44.777Z,95995.78
2022-11-18T05:17:48.985Z,95994.34
2022-11-18T05:21:52.609Z,95998.56
2022-11-18T05:26:01.222Z,95992.59
2022-11-18T05:30:08.335Z,95996.59
2022-11-18T05:34:11.722Z,96003.56
2022-11-18T05:38:15.157Z,96008.56
2022-11-18T05:42:36.029Z,96001.41
2022-11-18T05:46:40.884Z,96007.81
2022-11-18T05:50:44.520Z,96011.06
2022-11-18T05:54:52.912Z,96014.06
2022-11-18T05:58:56.037Z,96020.84
2022-11-18T06:03:02.260Z,96027.47
2022-11-18T06:07:11.353Z,96031.03
2022-11-18T06:11:18.833Z,96046.59
2022-11-18T06:15:27.126Z,96045.81
2022-11-18T06:19:32.986Z,96047.41
2022-11-18T06:23:38.597Z,96048.84
2022-11-18T06:27:42.455Z,96052.25
2022-11-18T06:31:46.073Z,96050.28
2022-11-18T06:35:52.215Z,96055.25
2022-11-18T06:39:55.188Z,96060.25
2022-11-18T06:43:59.010Z,96063.31
2022-11-18T06:48:02.510Z,96072.69
2022-11-18T06:52:07.461Z,96072.31
2022-11-18T06:56:12.450Z,96078.91
2022-11-18T07:00:17.269Z,96083.75
2022-11-18T07:04:20.953Z,96095.56
2022-11-18T07:08:25.744Z,96101.53
2022-11-18T07:12:29.188Z,96111.16
2022-11-18T07:16:32.360Z,96118.94
2022-11-18T07:20:36.315Z,96121.88
2022-11-18T07:24:41.473Z,96130.66
2022-11-18T07:28:45.242Z,96125.03
2022-11-18T07:32:48.769Z,96121.81
2022-11-18T07:36:52.559Z,96134.78
2022-11-18T07:40:57.854Z,96140.78
2022-11-18T07:45:12.430Z,96144.97
2022-11-18T07:49:16.237Z,96128.63
2022-11-18T07:53:19.967Z,96137.81
2022-11-18T07:57:24.856Z,96142.66
2022-11-18T08:01:29.847Z,96138.88
2022-11-18T08:05:33.387Z,96137.53
2022-11-18T08:09:36.903Z,96128.81
2022-11-18T08:13:41.856Z,96121.25
2022-11-18T08:17:44.980Z,96115.19
2022-11-18T08:21:48.591Z,96120.25
2022-11-18T08:25:52.128Z,96112.16
2022-11-18T08:29:56.754Z,96105.84
2022-11-18T08:34:01.287Z,96099.13
2022-11-18T08:38:04.349Z,96101.81
2022-11-18T08:42:07.578Z,96100.69
2022-11-18T08:46:12.613Z,96104.53
2022-11-18T08:50:15.840Z,96095.78
2022-11-18T08:54:18.989Z,96092.03
2022-11-18T08:58:22.531Z,96093.13
2022-11-18T09:02:27.689Z,96092.94
2022-11-18T09:06:30.869Z,96094.78
2022-11-18T09:10:34.610Z,96099.03
2022-11-18T09:19:24.345Z,96093.44
2022-11-18T09:23:26.731Z,96095.03
2022-11-18T09:27:30.243Z,96105.25
2022-11-18T09:31:33.727Z,96097.25
2022-11-18T09:35:43.888Z,96095.88
2022-11-18T09:39:47.335Z,96099.09
2022-11-18T09:44:01.798Z,96094.72
2022-11-18T09:48:17.060Z,96094.13
2022-11-18T09:52:25.881Z,96090.97
2022-11-18T09:56:29.658Z,96093.97
2022-11-18T10:00:33.422Z,96094.38
2022-11-18T10:04:36.975Z,96093.19
2022-11-18T10:08:47.103Z,96093.59
2022-11-18T10:12:57.486Z,96089.59
2022-11-18T10:17:12.385Z,96079.97
2022-11-18T10:21:25.883Z,96078.38
2022-11-18T10:25:31.011Z,96076.38
2022-11-18T10:29:34.418Z,96071.97
2022-11-18T10:33:38.290Z,96067.59
2022-11-18T10:38:09.264Z,96056.38
2022-11-18T10:42:07.473Z,96058.00
2022-11-18T10:46:25.492Z,96059.38
2022-11-18T10:50:35.948Z,96058.00
2022-11-18T10:54:40.084Z,96058.78
2022-11-18T10:58:46.805Z,96049.97
2022-11-18T11:02:50.675Z,96043.34
2022-11-18T11:06:54.706Z,96042.31
2022-11-18T11:10:59.274Z,96033.53
2022-11-18T11:15:07.820Z,96028.09
2022-11-18T11:19:15.003Z,96040.31
2022-11-18T11:23:23.493Z,96039.28
2022-11-18T11:32:15.051Z,96044.81
2022-11-18T11:36:38.973Z,96046.25
2022-11-18T11:40:50.702Z,96046.41
2022-11-18T11:45:08.225Z,96052.41
2022-11-18T11:49:20.935Z,96064.00
2022-11-18T11:53:42.564Z,96057.19
2022-11-18T11:57:59.552Z,96062.84
2022-11-18T12:02:40.221Z,96058.88
2022-11-18T12:06:48.406Z,96067.09
2022-11-18T12:10:55.867Z,96061.47
2022-11-18T12:15:05.632Z,96071.91
2022-11-18T12:19:12.935Z,96070.28
2022-11-18T12:23:31.494Z,96075.56
2022-11-18T12:28:01.297Z,96080.78
2022-11-18T12:32:06.163Z,96079.38
2022-11-18T12:36:09.960Z,96071.19
2022-11-18T12:40:34.699Z,96085.03
2022-11-18T12:44:39.568Z,96076.41
2022-11-18T12:48:43.559Z,96089.22
2022-11-18T12:52:49.523Z,96086.44
2022-11-18T12:56:55.247Z,96086.22
2022-11-18T13:01:13.338Z,96092.88
2022-11-18T13:05:23.119Z,96100.88
2022-11-18T13:09:27.669Z,96094.84
2022-11-18T13:13:34.628Z,96095.88
2022-11-18T13:17:55.334Z,96102.69
2022-11-18T13:22:19.613Z,96096.47
2022-11-18T13:26:28.597Z,96101.69
2022-11-18T13:30:36.916Z,96110.50
2022-11-18T13:34:47.729Z,96121.31
2022-11-18T13:38:58.152Z,96116.53
2022-11-18T13:43:02.022Z,96112.31
2022-11-18T13:47:17.520Z,96116.09
2022-11-18T13:51:21.612Z,96103.28
2022-11-18T13:55:27.177Z,96108.06
2022-11-18T13:59:30.936Z,96101.66
2022-11-18T14:03:47.576Z,96108.47
2022-11-18T14:08:03.454Z,96112.69
2022-11-18T14:16:36.901Z,96124.03
2022-11-18T14:20:41.908Z,96114.84
2022-11-18T14:24:45.946Z,96130.06
2022-11-18T14:28:56.998Z,96134.44
2022-11-18T14:33:22.429Z,96134.84
2022-11-18T14:37:28.540Z,96132.34
2022-11-18T14:41:49.837Z,96137.75
2022-11-18T14:45:56.547Z,96141.94
2022-11-18T14:50:00.118Z,96151.91
2022-11-18T14:54:06.146Z,96153.88
2022-11-18T14:58:14.650Z,96157.50
2022-11-18T15:02:19.564Z,96159.31
2022-11-18T15:06:23.795Z,96153.69
2022-11-18T15:10:29.187Z,96159.25
2022-11-18T15:14:32.701Z,96157.03
2022-11-18T15:18:35.829Z,96156.63
2022-11-18T15:22:39.425Z,96166.84
2022-11-18T15:26:46.897Z,96174.66
2022-11-18T15:30:50.466Z,96173.03
2022-11-18T15:34:54.066Z,96181.03
2022-11-18T15:38:57.018Z,96189.22
2022-11-18T15:43:02.073Z,96200.22
2022-11-18T15:47:05.960Z,96203.56
2022-11-18T15:51:12.121Z,96209.72
2022-11-18T15:55:15.875Z,96206.06
2022-11-18T15:59:21.086Z,96217.66
2022-11-18T16:03:27.650Z,96216.00
2022-11-18T16:07:31.346Z,96216.75
2022-11-18T16:11:52.538Z,96222.50
2022-11-18T16:15:57.163Z,96235.88
2022-11-18T16:20:00.941Z,96238.44
2022-11-18T16:24:06.948Z,96241.59
2022-11-18T16:28:10.513Z,96253.53
2022-11-18T16:32:16.125Z,96249.53
2022-11-18T16:36:19.177Z,96259.84
2022-11-18T16:40:22.992Z,96269.63
2022-11-18T16:44:26.447Z,96273.56
2022-11-18T16:48:31.526Z,96274.56
2022-11-18T16:52:35.126Z,96288.09
2022-11-18T16:56:41.946Z,96293.28
2022-11-18T17:01:16.725Z,96296.06
2022-11-18T17:05:11.955Z,96305.66
2022-11-18T17:09:17.233Z,96301.44
2022-11-18T17:13:21.357Z,96317.56
2022-11-18T17:17:24.415Z,96322.75
2022-11-18T17:21:31.046Z,96327.34
2022-11-18T17:25:36.153Z,96323.53
2022-11-18T17:29:39.601Z,96324.50
2022-11-18T17:33:43.609Z,96336.22
2022-11-18T17:37:48.240Z,96340.78
2022-11-18T17:42:11.840Z,96345.56
2022-11-18T17:46:15.303Z,96351.75
2022-11-18T17:50:20.509Z,96357.13
2022-11-18T17:54:24.974Z,96362.50
2022-11-18T17:58:28.623Z,96371.41
2022-11-18T18:02:32.976Z,96372.06
2022-11-18T18:06:36.471Z,96377.25
2022-11-18T18:10:41.668Z,96382.63
2022-11-18T18:14:45.450Z,96388.63
2022-11-18T18:18:49.108Z,96391.06
2022-11-18T18:22:53.845Z,96390.25
2022-11-18T18:26:58.374Z,96395.25
2022-11-18T18:35:18.899Z,96406.63
2022-11-18T18:39:22.790Z,96401.44
2022-11-18T18:43:27.732Z,96405.81
2022-11-18T18:47:30.906Z,96410.19
2022-11-18T18:51:39.148Z,96408.41
2022-11-18T18:55:45.108Z,96408.72
2022-11-18T18:59:50.376Z,96411.34
2022-11-18T19:03:58.978Z,96410.53
2022-11-18T19:08:02.291Z,96418.50
2022-11-18T19:12:24.135Z,96407.19
2022-11-18T19:16:29.647Z,96407.50
2022-11-18T19:20:38.616Z,96410.44
2022-11-18T19:24:49.759Z,96423.41
2022-11-18T19:28:54.830Z,96427.63
2022-11-18T19:33:00.987Z,96430.69
2022-11-18T19:37:04.975Z,96426.00
2022-11-18T19:41:10.716Z,96431.38
2022-11-18T19:45:15.503Z,96439.00
2022-11-18T19:49:21.824Z,96437.91
2022-11-18T19:53:35.759Z,96433.25
2022-11-18T19:57:42.440Z,96434.47
2022-11-18T20:01:46.398Z,96436.34
2022-11-18T20:05:53.924Z,96445.03
2022-11-18T20:09:57.875Z,96442.88
2022-11-18T20:14:01.504Z,96450.66
2022-11-18T20:18:06.546Z,96454.41
2022-11-18T20:22:12.292Z,96470.72
2022-11-18T20:26:19.829Z,96471.63
2022-11-18T20:30:24.117Z,96474.22
2022-11-18T20:34:27.934Z,96480.06
2022-11-18T20:38:37.660Z,96478.56
2022-11-18T20:43:00.012Z,96486.16
2022-11-18T20:47:03.626Z,96477.84
2022-11-18T20:51:09.312Z,96472.84
2022-11-18T20:55:17.741Z,96485.09
2022-11-18T20:59:21.307Z,96480.38
2022-11-18T21:03:25.974Z,96467.72
2022-11-18T21:07:29.624Z,96463.34
2022-11-18T21:11:39.150Z,96464.25
2022-11-18T21:15:42.376Z,96459.72
2022-11-18T21:19:48.495Z,96466.34
2022-11-18T21:23:55.550Z,96466.69
2022-11-18T21:28:00.353Z,96469.75
2022-11-18T21:32:04.035Z,96473.44
2022-11-18T21:36:08.284Z,96474.88
2022-11-18T21:40:13.171Z,96477.13
2022-11-18T21:44:17.736Z,96471.56
2022-11-18T21:48:21.461Z,96478.38
2022-11-18T21:52:25.045Z,96476.59
2022-11-18T21:56:31.612Z,96472.28
2022-11-18T22:00:36.721Z,96479.72
2022-11-18T22:04:54.951Z,96494.16
2022-11-18T22:08:59.527Z,96482.75
2022-11-18T22:13:03.246Z,96493.44
2022-11-18T22:17:09.512Z,96499.06
2022-11-18T22:21:14.800Z,96511.53
2022-11-18T22:25:17.993Z,96513.47
2022-11-18T22:29:23.946Z,96518.78
2022-11-18T22:33:29.057Z,96528.00
2022-11-18T22:37:32.574Z,96542.59
2022-11-18T22:41:53.482Z,96535.56
2022-11-18T22:46:04.413Z,96554.09
2022-11-18T22:50:09.626Z,96557.50
2022-11-18T22:58:36.700Z,96562.50
2022-11-18T23:02:40.314Z,96568.19
2022-11-18T23:06:45.371Z,96571.75
2022-11-18T23:10:48.764Z,96579.38
2022-11-18T23:14:52.202Z,96566.09
2022-11-18T23:18:55.722Z,96568.97
2022-11-18T23:23:00.641Z,96561.16
2022-11-18T23:27:04.148Z,96558.13
2022-11-18T23:31:08.893Z,96575.69
2022-11-18T23:35:12.285Z,96572.84
2022-11-18T23:39:17.832Z,96564.31
2022-11-18T23:43:21.256Z,96582.22
2022-11-18T23:47:26.778Z,96584.47
2022-11-18T23:51:30.430Z,96588.06
2022-11-18T23:55:35.976Z,96590.94
2022-11-18T23:59:39.439Z,96588.16
